New York, New York
Current Conditions -  °F | °C
As of 3:51 PM on Tuesday 21 Oct 2014 (Local Time) from KNYC Reporting Station
Broken Clouds Broken Clouds  
Wind Chill: 18°   Ceiling: 3000
Heat Index: 18°   Visibility: 10mi
Dew Point: 11°   Wind: 5mph
Humidity: 63%   Direction: NA
Pressure: 29.85"   Gusts: NA
Location:  40.71°N, 74.01°W
Report Text: KNYC 211951Z AUTO VRB04KT 10SM SCT025 BKN030 18/11 A2985 RMK AO2 SLP099 T01830111 $
Loading
Personal Weather Stations






























Interactive Weather Map
Tropical Storm Tracking
New forecast layout! Learn more

10-Day Weather Forecast

Advertisements
Track Severe Weather on mobile